Time;durP1;ratioP1;P1;durP2;ratioP2;P2;SDS_P1;SDS_P2;PMS_P1;PMS_P2;Temp;Humidity;BMP_temperature;BMP_pressure;BME280_temperature;BME280_humidity;BME280_pressure;Samples;Min_cycle;Max_cycle;Signal;HPM_P1;HPM_P2
2021/03/06 00:00:10;;;;;;;;;50.40;39.80;;;;;5.62;43.80;99837.09;6185602;28;127627;-58
2021/03/06 00:03:11;;;;;;;;;51.60;40.00;;;;;5.63;43.75;99844.13;6183933;28;124335;-58
2021/03/06 00:06:13;;;;;;;;;50.00;40.33;;;;;5.36;43.93;99829.25;6185706;28;126613;-58
2021/03/06 00:09:14;;;;;;;;;49.40;40.00;;;;;5.49;44.18;99847.47;6185551;28;126671;-58
2021/03/06 00:12:16;;;;;;;;;54.20;43.00;;;;;5.25;44.04;99808.16;6213182;28;126844;-58
2021/03/06 00:15:23;;;;;;;;;53.00;41.00;;;;;5.55;44.15;99852.16;6175614;28;126302;-58
2021/03/06 00:18:26;;;;;;;;;52.00;39.00;;;;;5.47;44.15;99831.56;6209474;28;125140;-58
2021/03/06 00:21:27;;;;;;;;;49.00;40.00;;;;;5.48;44.13;99853.81;6207447;28;125392;-58
2021/03/06 00:24:29;;;;;;;;;50.20;41.00;;;;;5.45;44.25;99852.31;6208362;28;125334;-58
2021/03/06 00:27:31;;;;;;;;;45.50;36.75;;;;;5.40;44.04;99848.47;6207265;28;125267;-58
2021/03/06 00:30:32;;;;;;;;;45.00;38.00;;;;;5.28;44.35;99817.72;6209213;28;125130;-58
2021/03/06 00:33:34;;;;;;;;;47.25;38.00;;;;;5.19;44.00;99822.19;6207655;28;124480;-58
2021/03/06 00:36:35;;;;;;;;;47.00;39.00;;;;;5.35;44.40;99851.63;6209660;28;126787;-58
2021/03/06 00:39:37;;;;;;;;;46.20;37.20;;;;;5.35;44.46;99848.97;6208953;28;127179;-58
2021/03/06 00:42:39;;;;;;;;;53.00;39.50;;;;;5.21;44.66;99823.72;6207267;28;124202;-58
2021/03/06 00:45:41;;;;;;;;;49.80;39.00;;;;;5.34;44.48;99849.13;6224221;28;126372;-58
2021/03/06 00:48:43;;;;;;;;;48.80;39.40;;;;;5.28;44.68;99831.91;6208936;28;126645;-60
2021/03/06 00:51:46;;;;;;;;;50.40;39.60;;;;;5.33;44.54;99844.75;6207321;28;124836;-60
2021/03/06 00:54:53;;;;;;;;;49.50;39.50;;;;;5.33;44.61;99837.59;6207871;28;124715;-60
2021/03/06 00:57:55;;;;;;;;;48.80;39.20;;;;;5.28;44.43;99837.25;6207244;28;125265;-60
2021/03/06 01:00:59;;;;;;;;;47.50;37.50;;;;;5.27;44.46;99816.03;6223702;28;125365;-60
2021/03/06 01:04:01;;;;;;;;;49.50;40.25;;;;;5.47;44.47;99841.47;6207663;28;126078;-60
2021/03/06 01:07:02;;;;;;;;;52.00;41.00;;;;;5.43;44.66;99846.28;6208817;28;125456;-60
2021/03/06 01:10:11;;;;;;;;;53.25;41.25;;;;;5.42;44.54;99839.28;6203552;28;125277;-60
2021/03/06 01:13:13;;;;;;;;;49.80;39.40;;;;;5.48;44.36;99843.97;6182538;28;124493;-60
2021/03/06 01:16:15;;;;;;;;;53.50;42.00;;;;;5.41;44.62;99856.34;6198494;28;127490;-60
2021/03/06 01:19:16;;;;;;;;;48.00;40.00;;;;;5.34;44.57;99849.97;6183696;28;127960;-60
2021/03/06 01:22:18;;;;;;;;;54.40;43.60;;;;;5.33;44.89;99852.78;6182457;28;125165;-60
2021/03/06 01:25:20;;;;;;;;;52.00;41.00;;;;;5.36;45.07;99853.31;6186891;28;127061;-60
2021/03/06 01:28:21;;;;;;;;;52.60;41.00;;;;;5.31;44.94;99833.41;6182606;28;127051;-60
2021/03/06 01:31:23;;;;;;;;;52.50;40.50;;;;;5.50;44.51;99857.19;6183156;28;96900;-60
2021/03/06 01:34:26;;;;;;;;;52.00;40.40;;;;;5.18;44.59;99809.84;6207033;28;126973;-60
2021/03/06 01:37:28;;;;;;;;;50.00;40.00;;;;;5.27;44.86;99837.44;6182979;28;125318;-60
2021/03/06 01:40:32;;;;;;;;;53.60;43.00;;;;;5.51;44.71;99874.91;6183224;28;126289;-60
2021/03/06 01:43:33;;;;;;;;;53.00;43.00;;;;;5.53;44.59;99881.75;6182568;28;124691;-60
2021/03/06 01:46:35;;;;;;;;;49.20;40.60;;;;;5.47;44.40;99873.56;6182410;28;127695;-60
2021/03/06 01:49:37;;;;;;;;;52.80;42.80;;;;;5.44;45.06;99874.72;6182083;28;128017;-60
2021/03/06 01:52:38;;;;;;;;;52.20;43.00;;;;;5.45;45.01;99873.72;6182244;28;125737;-60
2021/03/06 01:55:45;;;;;;;;;55.00;44.00;;;;;5.45;45.03;99875.56;6195015;28;126368;-60
2021/03/06 01:58:46;;;;;;;;;57.20;44.00;;;;;5.38;45.25;99883.38;6190270;28;126220;-60
2021/03/06 02:01:48;;;;;;;;;55.00;44.00;;;;;5.00;45.64;99842.03;6182140;28;125211;-60
2021/03/06 02:04:50;;;;;;;;;59.00;47.00;;;;;5.18;45.83;99866.00;6181682;28;126748;-60
2021/03/06 02:07:53;;;;;;;;;52.00;42.00;;;;;5.24;45.76;99876.84;6181870;28;125242;-60
2021/03/06 02:10:54;;;;;;;;;56.00;44.00;;;;;5.23;45.65;99880.50;6181524;28;125683;-60
2021/03/06 02:14:33;;;;;;;;;56.00;44.00;;;;;5.18;45.81;99877.50;6182811;28;126495;-60
2021/03/06 02:17:39;;;;;;;;;60.20;46.80;;;;;5.12;46.10;99877.31;6198059;28;125826;-60
2021/03/06 02:21:23;;;;;;;;;55.50;45.00;;;;;5.08;45.92;99878.66;6186169;28;126171;-60
2021/03/06 02:24:43;;;;;;;;;57.40;45.60;;;;;5.07;46.55;99880.50;6186420;28;124838;-60
2021/03/06 02:28:09;;;;;;;;;55.40;44.00;;;;;5.02;46.89;99890.00;6187064;28;124085;-60
2021/03/06 02:31:14;;;;;;;;;61.60;45.80;;;;;4.64;46.51;99809.34;6186725;28;126945;-60
2021/03/06 02:34:21;;;;;;;;;57.00;45.00;;;;;4.96;46.55;99874.59;6186665;28;126246;-60
2021/03/06 02:37:25;;;;;;;;;58.00;44.00;;;;;4.77;46.78;99860.50;6185881;28;127005;-60
2021/03/06 02:40:29;;;;;;;;;55.00;43.00;;;;;5.06;46.36;99892.16;6185967;28;123847;-60
2021/03/06 02:43:33;;;;;;;;;58.00;45.20;;;;;5.09;46.24;99888.31;6202064;28;126226;-60
2021/03/06 02:46:36;;;;;;;;;61.60;48.00;;;;;4.73;46.29;99820.91;6186666;28;124916;-60
2021/03/06 02:49:37;;;;;;;;;57.80;46.60;;;;;5.08;46.23;99892.81;6186751;28;124943;-60
2021/03/06 02:52:39;;;;;;;;;56.00;44.00;;;;;5.11;46.23;99892.53;6211588;28;126433;-60
2021/03/06 02:55:41;;;;;;;;;56.00;44.00;;;;;5.19;46.18;99894.38;6210437;28;126552;-60
2021/03/06 02:58:49;;;;;;;;;54.00;43.60;;;;;4.78;46.24;99851.50;6211500;28;127179;-60
2021/03/06 03:02:21;;;;;;;;;54.40;43.00;;;;;5.19;46.29;99894.38;6211358;28;125986;-60
2021/03/06 03:05:58;;;;;;;;;53.00;43.00;;;;;5.12;46.40;99896.88;6211780;28;124185;-60
2021/03/06 03:09:11;;;;;;;;;53.00;42.50;;;;;5.15;46.38;99901.06;6206523;28;126018;-60
2021/03/06 03:12:20;;;;;;;;;54.75;43.00;;;;;4.97;45.85;99869.09;6211071;28;124483;-60
2021/03/06 03:15:36;;;;;;;;;50.60;42.00;;;;;5.26;46.09;99905.25;6211311;28;126005;-60
2021/03/06 03:18:46;;;;;;;;;52.80;42.80;;;;;5.22;45.86;99894.06;6211286;28;125304;-60
2021/03/06 03:21:53;;;;;;;;;58.00;44.20;;;;;4.63;46.06;99836.22;6210492;28;125434;-60
2021/03/06 03:24:56;;;;;;;;;52.60;42.40;;;;;4.96;46.33;99888.78;6210640;28;126600;-60
2021/03/06 03:27:59;;;;;;;;;51.00;41.50;;;;;4.86;46.27;99900.59;6211117;28;124955;-60
2021/03/06 03:31:02;;;;;;;;;52.00;42.00;;;;;5.06;46.38;99932.25;6188522;28;126625;-60
2021/03/06 03:34:07;;;;;;;;;49.60;41.00;;;;;4.99;46.52;99923.19;6204569;28;124748;-60
2021/03/06 03:37:10;;;;;;;;;50.00;41.00;;;;;4.83;46.91;99928.50;6210339;28;125559;-60
2021/03/06 03:40:15;;;;;;;;;50.00;41.00;;;;;4.82;47.07;99939.34;6210298;28;125326;-60
2021/03/06 03:43:16;;;;;;;;;47.00;38.00;;;;;4.76;47.34;99935.47;6210088;28;127317;-60
2021/03/06 03:46:18;;;;;;;;;52.00;42.00;;;;;4.89;46.90;99930.50;6208910;28;125344;-60
2021/03/06 03:49:21;;;;;;;;;49.80;39.20;;;;;4.94;46.62;99936.22;6207365;28;125207;-60
2021/03/06 03:52:23;;;;;;;;;51.00;40.00;;;;;4.98;46.98;99942.09;6207473;28;124186;-60
2021/03/06 03:55:26;;;;;;;;;45.00;38.00;;;;;4.93;46.96;99947.91;6208021;28;122782;-60
2021/03/06 03:58:28;;;;;;;;;49.00;39.00;;;;;4.90;46.72;99953.56;6209681;28;126067;-60
2021/03/06 04:01:42;;;;;;;;;57.00;42.33;;;;;4.67;46.86;99923.91;6210339;28;127561;-60
2021/03/06 04:04:44;;;;;;;;;47.60;39.00;;;;;4.77;47.30;99953.16;6210173;28;126013;-60
2021/03/06 04:07:48;;;;;;;;;46.40;38.00;;;;;4.75;47.09;99947.13;6208669;28;126856;-60
2021/03/06 04:10:53;;;;;;;;;46.60;37.00;;;;;4.72;47.11;99956.31;6210833;28;124785;-60
2021/03/06 04:13:55;;;;;;;;;47.40;39.00;;;;;4.71;47.33;99953.78;6209931;28;125611;-60
2021/03/06 04:16:56;;;;;;;;;45.00;35.80;;;;;4.66;47.28;99953.44;6210307;28;126893;-60
2021/03/06 04:19:58;;;;;;;;;47.60;38.60;;;;;4.48;46.98;99905.44;6202716;28;125197;-60
2021/03/06 04:23:00;;;;;;;;;47.00;38.00;;;;;4.33;47.10;99881.16;6185654;28;126735;-60
2021/03/06 04:26:01;;;;;;;;;45.00;37.00;;;;;4.75;47.18;99953.31;6185473;28;124764;-60
2021/03/06 04:29:03;;;;;;;;;43.60;36.00;;;;;4.64;47.16;99937.56;6185051;28;126760;-60
2021/03/06 04:32:05;;;;;;;;;45.00;37.50;;;;;4.78;47.10;99962.88;6185621;28;124574;-60
2021/03/06 04:35:09;;;;;;;;;43.80;35.00;;;;;4.76;47.13;99965.69;6167747;28;124925;-60
2021/03/06 04:38:10;;;;;;;;;46.75;38.00;;;;;4.69;47.01;99956.63;6183847;28;125841;-60
2021/03/06 04:41:12;;;;;;;;;43.80;35.60;;;;;4.79;46.94;99965.34;6184887;28;125259;-60
2021/03/06 04:44:14;;;;;;;;;46.40;38.00;;;;;4.72;47.38;99972.34;6183689;28;125652;-60
2021/03/06 04:47:17;;;;;;;;;42.50;35.00;;;;;4.63;47.35;99975.13;6185287;28;125247;-60
2021/03/06 04:50:19;;;;;;;;;46.50;37.00;;;;;4.70;46.96;99977.00;6192887;28;124784;-60
2021/03/06 04:53:20;;;;;;;;;44.20;36.00;;;;;4.77;46.96;99978.06;6209515;28;125195;-60
2021/03/06 04:56:23;;;;;;;;;49.00;38.60;;;;;4.53;47.30;99955.69;6208319;28;124209;-60
2021/03/06 04:59:24;;;;;;;;;49.50;37.75;;;;;4.61;47.06;99990.47;6208097;28;125640;-60
2021/03/06 05:02:27;;;;;;;;;46.20;36.80;;;;;4.77;46.92;99995.91;6209693;28;125189;-60
2021/03/06 05:05:29;;;;;;;;;46.00;36.00;;;;;4.73;47.00;99994.56;6209469;28;127031;-60
2021/03/06 05:08:30;;;;;;;;;44.75;36.25;;;;;4.70;47.09;99995.69;6209223;28;126360;-60
2021/03/06 05:11:32;;;;;;;;;44.40;36.00;;;;;4.76;47.14;100002.25;6208995;28;127233;-60
2021/03/06 05:14:34;;;;;;;;;47.00;39.00;;;;;4.50;46.52;99977.34;6207904;28;126596;-60
2021/03/06 05:17:35;;;;;;;;;45.00;36.00;;;;;4.65;46.87;99991.81;6207120;28;127013;-60
2021/03/06 05:20:37;;;;;;;;;42.60;35.00;;;;;4.64;46.80;99998.97;6195882;28;124599;-60
2021/03/06 05:23:38;;;;;;;;;43.40;36.40;;;;;4.52;47.33;100000.25;6191741;28;127254;-60
2021/03/06 05:26:39;;;;;;;;;43.80;36.00;;;;;4.58;47.30;100009.47;6182246;28;126960;-60
2021/03/06 05:29:41;;;;;;;;;46.60;36.60;;;;;4.42;47.29;99991.50;6197481;28;125166;-60
2021/03/06 05:32:43;;;;;;;;;41.80;34.80;;;;;4.65;47.21;100016.69;6181844;28;126254;-60
2021/03/06 05:35:45;;;;;;;;;45.00;35.50;;;;;4.70;47.32;100016.22;6181480;28;126095;-60
2021/03/06 05:38:46;;;;;;;;;44.00;36.00;;;;;4.77;47.01;100015.47;6182432;28;126541;-60
2021/03/06 05:41:48;;;;;;;;;42.00;33.00;;;;;4.59;47.03;99990.63;6196894;28;127224;-60
2021/03/06 05:44:51;;;;;;;;;41.33;35.00;;;;;4.95;46.96;100026.06;6183706;28;125588;-60
2021/03/06 05:47:53;;;;;;;;;43.00;36.00;;;;;5.01;46.47;100028.13;6183652;28;124923;-60
2021/03/06 05:50:55;;;;;;;;;42.50;34.50;;;;;5.09;46.19;100019.28;6182189;28;124098;-60
2021/03/06 05:53:57;;;;;;;;;41.00;35.25;;;;;5.26;46.28;100038.94;6182511;28;126395;-60
2021/03/06 05:57:00;;;;;;;;;42.80;36.00;;;;;5.20;46.05;100019.88;6187806;28;126640;-60
2021/03/06 06:00:03;;;;;;;;;43.00;35.00;;;;;5.36;45.98;100039.66;6170268;28;125275;-60
2021/03/06 06:03:06;;;;;;;;;41.20;33.20;;;;;5.51;45.88;100054.13;6187774;28;126115;-60
2021/03/06 06:06:09;;;;;;;;;40.00;34.00;;;;;5.56;45.70;100059.81;6187293;28;124963;-60
2021/03/06 06:09:11;;;;;;;;;47.00;38.00;;;;;5.66;45.94;100053.34;6169877;28;124654;-60
2021/03/06 06:12:12;;;;;;;;;39.20;33.60;;;;;5.89;45.33;100055.44;6186624;28;125954;-60
2021/03/06 06:15:14;;;;;;;;;39.75;34.00;;;;;6.03;45.04;100057.47;6187516;28;126559;-60
2021/03/06 06:18:17;;;;;;;;;49.40;40.40;;;;;6.21;44.68;100081.44;6187110;28;126350;-60
2021/03/06 06:21:37;;;;;;;;;41.80;35.00;;;;;6.37;44.42;100082.31;6206079;28;125187;-60
2021/03/06 06:24:42;;;;;;;;;37.80;32.60;;;;;6.60;43.97;100074.44;6189258;28;124992;-60
2021/03/06 06:27:59;;;;;;;;;41.75;34.00;;;;;6.67;43.55;100070.09;6202494;28;124956;-60
2021/03/06 06:31:11;;;;;;;;;42.60;36.00;;;;;6.97;43.10;100079.28;6202489;28;125614;-60
2021/03/06 06:34:14;;;;;;;;;45.50;35.25;;;;;7.11;42.89;100086.66;6186954;28;125883;-60
2021/03/06 06:37:15;;;;;;;;;43.20;36.00;;;;;7.29;42.32;100092.63;6185853;28;125497;-60
2021/03/06 06:40:18;;;;;;;;;35.50;32.00;;;;;7.59;41.88;100093.72;6187401;28;125449;-60
2021/03/06 06:43:24;;;;;;;;;38.60;33.40;;;;;7.89;41.16;100096.63;6186869;28;127274;-60
2021/03/06 06:46:29;;;;;;;;;42.00;35.00;;;;;8.37;40.42;100093.69;6200549;28;124798;-60
2021/03/06 06:49:43;;;;;;;;;40.00;34.00;;;;;8.92;39.18;100106.88;6211271;28;125605;-60
2021/03/06 06:52:45;;;;;;;;;45.60;37.00;;;;;9.43;38.05;100075.59;6211914;28;125997;-60
2021/03/06 06:55:46;;;;;;;;;43.60;35.60;;;;;10.36;36.34;100108.09;6211431;28;125030;-60
2021/03/06 06:58:48;;;;;;;;;41.00;33.60;;;;;11.69;34.68;100114.41;6211765;28;127087;-60
2021/03/06 07:01:49;;;;;;;;;41.60;35.00;;;;;13.35;32.07;100114.66;6211034;28;128678;-60
2021/03/06 07:04:56;;;;;;;;;36.60;30.00;;;;;15.01;29.69;100119.22;6210094;28;126897;-60
2021/03/06 07:07:59;;;;;;;;;42.40;35.00;;;;;16.11;27.73;100120.28;6210808;28;124881;-60
2021/03/06 07:11:01;;;;;;;;;44.60;36.00;;;;;17.11;26.25;100124.13;6211033;28;125354;-60
2021/03/06 07:14:02;;;;;;;;;38.00;34.00;;;;;17.86;25.31;100124.31;6211120;28;127394;-60
2021/03/06 07:17:04;;;;;;;;;42.80;35.00;;;;;18.07;24.48;100084.63;6202669;28;125292;-60
2021/03/06 07:20:09;;;;;;;;;40.00;34.00;;;;;17.98;24.46;100127.84;6208900;28;126850;-60
2021/03/06 07:23:19;;;;;;;;;42.00;34.60;;;;;18.47;23.79;100090.88;6210569;28;124778;-60
2021/03/06 07:26:20;;;;;;;;;40.20;34.80;;;;;18.76;23.35;100134.66;6210838;28;126621;-60
2021/03/06 07:29:35;;;;;;;;;44.60;36.60;;;;;19.45;23.23;100134.22;6210306;28;124935;-61
2021/03/06 07:32:41;;;;;;;;;42.00;36.00;;;;;18.52;24.00;100142.06;6210985;28;126521;-61
2021/03/06 07:35:45;;;;;;;;;45.00;36.00;;;;;17.60;24.35;100114.69;6209187;28;125881;-60
2021/03/06 07:38:47;;;;;;;;;44.75;36.00;;;;;18.16;24.28;100135.03;6208890;28;126053;-60
2021/03/06 07:41:58;;;;;;;;;45.00;36.80;;;;;19.44;23.00;100134.50;6210391;28;125988;-61
2021/03/06 07:44:59;;;;;;;;;50.00;40.00;;;;;20.46;22.03;100134.84;6210576;28;127863;-60
2021/03/06 07:48:09;;;;;;;;;47.40;39.00;;;;;21.21;21.06;100136.72;6210380;28;126546;-60
2021/03/06 07:51:11;;;;;;;;;47.00;39.00;;;;;21.54;20.18;100138.41;6209008;28;127124;-60
2021/03/06 07:54:14;;;;;;;;;47.80;38.40;;;;;21.38;20.38;100115.50;6209773;28;124878;-61
2021/03/06 07:57:15;;;;;;;;;46.60;39.00;;;;;22.27;19.82;100133.91;6209178;28;125385;-61
2021/03/06 08:00:38;;;;;;;;;49.40;40.00;;;;;23.14;18.79;100144.06;6210756;28;125016;-61
2021/03/06 08:03:40;;;;;;;;;45.20;36.20;;;;;23.83;17.91;100103.03;6210280;28;127716;-61
2021/03/06 08:06:41;;;;;;;;;46.60;38.00;;;;;24.64;17.79;100130.28;6210114;28;127750;-61
2021/03/06 08:10:00;;;;;;;;;43.00;36.00;;;;;25.18;16.67;100129.41;6208745;28;126773;-61
2021/03/06 08:13:02;;;;;;;;;39.80;34.60;;;;;25.87;16.59;100140.97;6209686;28;124905;-61
2021/03/06 08:19:24;;;;;;;;;45.00;36.00;;;;;26.18;16.13;100119.38;6194408;28;125719;-61
2021/03/06 08:22:26;;;;;;;;;45.20;37.20;;;;;26.77;15.68;100142.97;6183389;28;124893;-61
2021/03/06 08:25:27;;;;;;;;;45.40;36.40;;;;;26.71;15.72;100147.75;6216597;28;126831;-61
2021/03/06 08:28:29;;;;;;;;;42.50;35.75;;;;;26.81;15.53;100132.94;6209454;28;127595;-61
2021/03/06 08:31:39;;;;;;;;;45.20;37.20;;;;;26.78;15.18;100118.91;6209918;28;126255;-61
2021/03/06 08:34:52;;;;;;;;;41.80;34.00;;;;;27.12;15.29;100144.44;6209539;28;123880;-61
2021/03/06 08:37:54;;;;;;;;;41.00;34.25;;;;;27.48;15.12;100145.47;6209445;28;127371;-61
2021/03/06 08:40:57;;;;;;;;;45.00;35.00;;;;;25.70;15.77;100142.56;6209243;28;125418;-61
2021/03/06 08:43:59;;;;;;;;;39.00;35.00;;;;;23.81;17.08;100074.94;6208818;28;123987;-61
2021/03/06 08:47:02;;;;;;;;;44.20;35.00;;;;;23.03;17.52;100076.38;6208896;28;125220;-61
2021/03/06 08:50:07;;;;;;;;;42.40;35.40;;;;;24.06;17.09;100115.38;6190892;28;124856;-61
2021/03/06 08:53:13;;;;;;;;;45.00;36.50;;;;;24.70;16.85;100140.19;6207627;28;123937;-61
2021/03/06 08:56:15;;;;;;;;;39.40;35.00;;;;;24.01;17.39;100141.00;6207075;28;125593;-61
2021/03/06 08:59:16;;;;;;;;;40.60;34.00;;;;;22.28;18.65;100157.56;6209023;28;127971;-61
2021/03/06 09:02:26;;;;;;;;;44.00;37.00;;;;;20.86;19.66;100145.44;6208413;28;126308;-61
2021/03/06 09:05:28;;;;;;;;;37.00;32.40;;;;;19.71;21.13;100146.41;6208489;28;124783;-61
2021/03/06 09:08:29;;;;;;;;;42.75;36.00;;;;;19.52;21.14;100098.50;6209290;28;125739;-61
2021/03/06 09:11:32;;;;;;;;;40.00;33.00;;;;;20.55;20.76;100138.78;6208498;28;125987;-60
2021/03/06 09:14:43;;;;;;;;;42.00;36.00;;;;;20.92;20.53;100155.34;6208930;28;125164;-59
2021/03/06 09:17:47;;;;;;;;;42.50;36.00;;;;;20.72;20.40;100147.75;6208808;28;125147;-61
2021/03/06 09:20:54;;;;;;;;;38.60;33.60;;;;;21.94;19.25;100137.88;6207541;28;123992;-61
2021/03/06 09:23:55;;;;;;;;;36.00;33.00;;;;;23.06;18.55;100147.38;6208845;28;127908;-60
2021/03/06 09:26:56;;;;;;;;;36.00;32.00;;;;;24.02;17.77;100145.41;6222129;28;125404;-60
2021/03/06 09:29:58;;;;;;;;;33.40;30.40;;;;;23.76;17.39;100099.75;6196190;28;127107;-60
2021/03/06 09:33:00;;;;;;;;;35.40;32.00;;;;;24.34;17.50;100133.19;6217636;28;127487;-59
2021/03/06 09:36:06;;;;;;;;;37.50;32.00;;;;;25.24;16.46;100137.38;6224875;28;125346;-61
2021/03/06 09:39:10;;;;;;;;;30.50;29.00;;;;;24.78;16.79;100113.94;6223276;28;123980;-62
2021/03/06 09:42:18;;;;;;;;;31.00;28.60;;;;;24.92;16.33;100137.88;6216101;28;126454;-62
2021/03/06 09:45:25;;;;;;;;;31.00;29.00;;;;;25.73;15.59;100158.53;6214995;28;124727;-61
2021/03/06 09:48:28;;;;;;;;;27.00;26.50;;;;;25.98;15.23;100150.00;6220563;28;125928;-61
2021/03/06 09:51:45;;;;;;;;;27.50;27.00;;;;;25.96;15.14;100152.22;6223286;28;126741;-61
2021/03/06 09:54:47;;;;;;;;;29.60;27.00;;;;;25.97;15.08;100134.53;6220666;28;124240;-62
2021/03/06 09:57:48;;;;;;;;;25.40;23.60;;;;;26.23;14.88;100143.38;6211477;28;127247;-60
2021/03/06 10:00:51;;;;;;;;;25.40;22.80;;;;;25.79;15.41;100160.97;6217603;28;126475;-58
2021/03/06 10:03:54;;;;;;;;;19.40;17.40;;;;;24.07;15.43;100152.84;6215807;28;125973;-57
2021/03/06 10:06:58;;;;;;;;;15.00;14.40;;;;;23.80;15.99;100158.66;6218922;28;125483;-61
2021/03/06 10:09:59;;;;;;;;;18.40;16.00;;;;;23.04;16.34;100164.13;6215526;28;126323;-62
2021/03/06 10:13:01;;;;;;;;;15.00;14.60;;;;;22.93;15.80;100101.13;6223845;28;127624;-60
2021/03/06 10:16:03;;;;;;;;;18.00;17.00;;;;;22.14;17.49;100154.44;6214291;28;125240;-61
2021/03/06 10:19:04;;;;;;;;;25.00;22.00;;;;;20.96;17.96;100147.47;6216602;27;124932;-61
2021/03/06 10:22:08;;;;;;;;;22.00;20.00;;;;;20.01;19.43;100164.34;6222455;28;125146;-61
2021/03/06 10:25:11;;;;;;;;;20.00;18.00;;;;;19.90;18.99;100163.38;6223057;28;126053;-60
2021/03/06 10:28:14;;;;;;;;;20.40;20.00;;;;;19.63;18.94;100168.72;6213977;28;126253;-61
2021/03/06 10:31:38;;;;;;;;;20.40;19.40;;;;;20.84;18.55;100157.72;6214272;27;126763;-60
2021/03/06 10:34:44;;;;;;;;;23.40;19.40;;;;;20.85;18.74;100130.06;6222748;27;124745;-60
2021/03/06 10:37:52;;;;;;;;;21.40;19.40;;;;;20.66;18.59;100170.72;6213249;28;128009;-60
2021/03/06 10:41:00;;;;;;;;;18.00;16.00;;;;;20.52;18.34;100171.38;6219102;27;124852;-61
2021/03/06 10:44:01;;;;;;;;;15.40;14.40;;;;;19.98;18.64;100162.13;6226480;28;126222;-60
2021/03/06 10:47:03;;;;;;;;;18.20;16.00;;;;;19.18;19.31;100115.97;6225930;28;125516;-61
2021/03/06 10:50:20;;;;;;;;;16.60;16.40;;;;;20.44;19.04;100169.06;6218612;28;126368;-60
2021/03/06 10:53:22;;;;;;;;;18.00;16.00;;;;;20.84;19.02;100160.47;6216323;28;124804;-60
2021/03/06 10:56:24;;;;;;;;;18.40;17.40;;;;;20.20;19.27;100154.75;6224897;27;126351;-59
2021/03/06 10:59:36;;;;;;;;;20.80;19.00;;;;;19.09;20.14;100112.81;6217433;28;125339;-59
2021/03/06 11:02:38;;;;;;;;;20.40;19.80;;;;;18.53;20.58;100119.13;6216486;28;125727;-60
2021/03/06 11:05:41;;;;;;;;;20.60;18.00;;;;;18.22;21.52;100144.19;6210509;28;126382;-59
2021/03/06 11:08:43;;;;;;;;;22.00;19.50;;;;;17.43;21.72;100108.28;6222460;28;126341;-60
2021/03/06 11:11:45;;;;;;;;;18.00;17.20;;;;;17.38;21.73;100143.59;6218831;27;126789;-59
2021/03/06 11:15:04;;;;;;;;;16.67;16.00;;;;;16.96;21.64;100131.09;6222674;27;126489;-60
2021/03/06 11:18:06;;;;;;;;;18.40;16.80;;;;;16.31;22.83;100128.19;6226263;28;125832;-59
2021/03/06 11:21:10;;;;;;;;;18.50;17.50;;;;;15.86;23.53;100124.94;6210415;28;124915;-59
2021/03/06 11:24:12;;;;;;;;;21.80;18.80;;;;;15.20;24.81;100111.94;6225957;27;125945;-59
2021/03/06 11:27:14;;;;;;;;;17.00;15.00;;;;;14.54;25.39;100100.75;6226446;28;124992;-59
2021/03/06 11:30:21;;;;;;;;;17.20;17.00;;;;;14.43;26.83;100139.41;6217241;28;126764;-59
2021/03/06 11:33:22;;;;;;;;;22.00;18.60;;;;;13.80;28.24;100145.47;6209715;28;125987;-60
2021/03/06 11:36:24;;;;;;;;;18.00;17.75;;;;;13.36;29.26;100139.88;6224594;27;127153;-60
2021/03/06 11:39:25;;;;;;;;;18.00;18.00;;;;;13.09;30.36;100144.44;6225578;28;124081;-60
2021/03/06 11:42:27;;;;;;;;;19.00;14.75;;;;;12.87;30.61;100124.84;6215320;28;126490;-60
2021/03/06 11:45:29;;;;;;;;;15.60;14.00;;;;;12.63;31.61;100114.59;6217998;27;126083;-60
2021/03/06 11:48:30;;;;;;;;;17.80;16.00;;;;;12.37;31.91;100095.59;6224122;27;126449;-60
2021/03/06 11:51:34;;;;;;;;;17.00;16.40;;;;;12.09;33.18;100099.25;6207610;28;127740;-60
2021/03/06 11:54:35;;;;;;;;;20.40;18.60;;;;;12.18;33.50;100108.03;6220292;28;124522;-60
2021/03/06 11:57:56;;;;;;;;;16.00;14.40;;;;;11.99;32.58;100062.81;6217649;27;125050;-60
2021/03/06 12:00:57;;;;;;;;;17.00;15.00;;;;;12.32;31.91;100090.81;6210452;28;127347;-60
2021/03/06 12:03:59;;;;;;;;;19.00;16.75;;;;;12.37;32.59;100092.88;6221445;28;124471;-60
2021/03/06 12:07:00;;;;;;;;;20.40;18.40;;;;;12.57;31.79;100093.78;6190155;27;127865;-60
2021/03/06 12:10:04;;;;;;;;;20.40;19.00;;;;;13.32;30.53;100035.72;6224471;28;125048;-60
2021/03/06 12:13:05;;;;;;;;;20.60;18.00;;;;;14.09;28.61;100089.88;6223722;28;126079;-60
2021/03/06 12:16:07;;;;;;;;;24.40;21.60;;;;;14.95;27.18;100043.25;6216588;27;127239;-60
2021/03/06 12:19:08;;;;;;;;;20.50;18.50;;;;;15.91;26.24;100043.50;6231693;28;127781;-61
2021/03/06 12:22:10;;;;;;;;;16.67;16.33;;;;;16.86;24.36;100068.97;6192757;27;125666;-62
2021/03/06 12:25:13;;;;;;;;;17.80;17.00;;;;;17.33;23.37;100024.38;6190355;28;126684;-61
2021/03/06 12:28:15;;;;;;;;;20.80;18.80;;;;;17.74;23.23;100064.28;6177058;28;126077;-60
2021/03/06 12:31:16;;;;;;;;;19.50;17.00;;;;;16.80;23.21;100038.09;6206707;28;126506;-60
2021/03/06 12:34:18;;;;;;;;;22.80;19.80;;;;;16.30;24.07;100080.25;6170578;28;125406;-60
2021/03/06 12:37:21;;;;;;;;;20.00;18.40;;;;;15.64;25.08;100063.94;6200112;28;126506;-62
2021/03/06 12:40:22;;;;;;;;;22.50;21.00;;;;;14.78;25.64;100015.81;6208137;28;127344;-61
2021/03/06 12:43:24;;;;;;;;;20.00;19.20;;;;;14.78;26.51;100072.81;6208333;28;127895;-62
2021/03/06 12:46:27;;;;;;;;;20.00;18.60;;;;;14.49;26.91;100068.00;6208419;28;126340;-61
2021/03/06 12:49:28;;;;;;;;;21.60;20.00;;;;;13.94;27.53;100064.91;6207326;28;126888;-61
2021/03/06 12:52:30;;;;;;;;;22.00;20.40;;;;;13.74;28.34;100069.56;6208068;28;126983;-60
2021/03/06 12:55:31;;;;;;;;;19.80;17.40;;;;;13.55;28.30;100055.03;6208478;28;125489;-61
2021/03/06 12:58:33;;;;;;;;;20.00;19.40;;;;;13.35;28.87;100014.44;6202086;28;126425;-62
2021/03/06 13:01:35;;;;;;;;;19.00;17.00;;;;;13.59;28.00;100050.84;6208132;28;127469;-60
2021/03/06 13:04:37;;;;;;;;;21.00;18.40;;;;;13.35;28.40;100019.88;6206722;28;126186;-60
2021/03/06 13:07:39;;;;;;;;;18.40;17.00;;;;;13.16;27.98;99984.72;6203360;28;126420;-61
2021/03/06 13:10:40;;;;;;;;;17.20;16.20;;;;;13.28;28.15;100013.66;6198761;28;128962;-61
2021/03/06 13:13:42;;;;;;;;;16.00;14.50;;;;;13.43;27.88;100037.78;6207883;28;126432;-61
2021/03/06 13:16:43;;;;;;;;;14.00;13.00;;;;;12.96;27.13;99993.66;6207625;28;125433;-61
2021/03/06 13:19:45;;;;;;;;;19.00;18.00;;;;;12.84;28.01;100045.94;6208578;28;125203;-61
2021/03/06 13:22:46;;;;;;;;;17.60;16.60;;;;;12.53;28.75;100039.25;6206473;28;124714;-61
2021/03/06 13:25:48;;;;;;;;;19.25;17.00;;;;;12.45;29.32;100039.47;6207555;28;125377;-61
2021/03/06 13:28:52;;;;;;;;;20.00;18.40;;;;;12.43;29.39;100040.69;6204179;28;128732;-61
2021/03/06 13:31:53;;;;;;;;;19.00;16.75;;;;;12.52;29.27;100015.09;6223106;28;127276;-61
2021/03/06 13:34:55;;;;;;;;;19.00;18.00;;;;;12.82;28.89;100023.66;6205361;28;126497;-61
2021/03/06 13:37:57;;;;;;;;;17.60;15.20;;;;;12.65;28.79;100000.78;6208197;28;127465;-61
2021/03/06 13:40:58;;;;;;;;;16.75;16.00;;;;;12.82;28.29;100023.66;6207421;28;126707;-61
2021/03/06 13:44:00;;;;;;;;;17.20;15.00;;;;;12.55;28.13;100023.66;6223164;28;128527;-61
2021/03/06 13:47:02;;;;;;;;;17.80;16.00;;;;;12.61;27.80;100015.75;6207460;28;128962;-62
2021/03/06 13:50:05;;;;;;;;;16.00;14.75;;;;;12.91;27.09;100019.69;6207422;28;126457;-60
2021/03/06 13:53:07;;;;;;;;;16.40;16.00;;;;;12.83;27.24;100012.63;6206966;28;127053;-61
2021/03/06 13:56:08;;;;;;;;;15.25;14.00;;;;;12.55;27.28;100006.59;6207727;28;126846;-62
2021/03/06 13:59:10;;;;;;;;;17.00;15.40;;;;;12.38;27.25;100006.16;6177069;28;125612;-60